createdAt,value
2023-02-22T00:02:29.040Z,5.61
2023-02-22T00:05:20.047Z,5.48
2023-02-22T00:08:10.049Z,5.43
2023-02-22T00:11:00.691Z,5.50
2023-02-22T00:13:50.582Z,5.59
2023-02-22T00:16:39.114Z,5.54
2023-02-22T00:19:30.065Z,5.51
2023-02-22T00:22:19.166Z,5.34
2023-02-22T00:25:07.953Z,5.28
2023-02-22T00:27:58.164Z,5.24
2023-02-22T00:30:48.236Z,5.26
2023-02-22T00:33:37.456Z,5.38
2023-02-22T00:36:25.952Z,5.52
2023-02-22T00:39:14.398Z,5.52
2023-02-22T00:42:03.959Z,5.49
2023-02-22T00:44:53.804Z,5.49
2023-02-22T00:47:42.323Z,5.54
2023-02-22T00:50:32.231Z,5.43
2023-02-22T00:53:20.719Z,5.38
2023-02-22T00:56:09.158Z,5.48
2023-02-22T00:58:57.666Z,5.48
2023-02-22T01:01:47.594Z,5.55
2023-02-22T01:04:36.089Z,5.51
2023-02-22T01:07:24.609Z,5.55
2023-02-22T01:10:14.382Z,5.56
2023-02-22T01:13:04.863Z,5.27
2023-02-22T01:15:53.381Z,5.43
2023-02-22T01:18:43.207Z,5.42
2023-02-22T01:21:31.866Z,5.28
2023-02-22T01:24:20.531Z,5.14
2023-02-22T01:27:10.849Z,5.01
2023-02-22T01:29:59.296Z,4.83
2023-02-22T01:32:47.905Z,4.66
2023-02-22T01:35:40.864Z,4.59
2023-02-22T01:38:29.343Z,4.47
2023-02-22T01:41:18.564Z,4.39
2023-02-22T01:44:29.071Z,4.38
2023-02-22T01:47:17.569Z,4.35
2023-02-22T01:50:07.185Z,4.26
2023-02-22T01:52:57.130Z,4.23
2023-02-22T01:55:46.255Z,4.26
2023-02-22T01:58:36.697Z,4.21
2023-02-22T02:01:26.639Z,4.12
2023-02-22T02:04:17.620Z,4.13
2023-02-22T02:07:07.545Z,4.15
2023-02-22T02:10:00.010Z,4.25
2023-02-22T02:12:50.531Z,4.26
2023-02-22T02:15:39.258Z,4.30
2023-02-22T02:18:28.650Z,4.30
2023-02-22T02:21:35.543Z,4.09
2023-02-22T02:24:39.605Z,4.10
2023-02-22T02:27:35.162Z,4.00
2023-02-22T02:30:44.775Z,3.94
2023-02-22T02:33:36.167Z,3.92
2023-02-22T02:36:31.560Z,3.81
2023-02-22T02:39:26.957Z,3.86
2023-02-22T02:42:18.994Z,3.78
2023-02-22T02:45:10.959Z,4.00
2023-02-22T02:48:00.334Z,4.02
2023-02-22T02:50:50.910Z,4.02
2023-02-22T02:53:41.835Z,4.02
2023-02-22T02:56:30.935Z,3.98
2023-02-22T02:59:27.821Z,3.98
2023-02-22T03:02:29.181Z,3.98
2023-02-22T03:05:34.813Z,3.89
2023-02-22T03:08:31.327Z,3.90
2023-02-22T03:11:21.191Z,3.95
2023-02-22T03:14:17.721Z,3.92
2023-02-22T03:17:13.062Z,3.92
2023-02-22T03:20:09.668Z,3.86
2023-02-22T03:23:01.029Z,3.68
2023-02-22T03:25:53.307Z,3.67
2023-02-22T03:28:44.221Z,3.64
2023-02-22T03:31:38.242Z,3.71
2023-02-22T03:34:29.563Z,3.64
2023-02-22T03:37:19.589Z,3.67
2023-02-22T03:40:13.931Z,3.73
2023-02-22T03:43:07.673Z,3.74
2023-02-22T03:45:56.311Z,3.72
2023-02-22T03:48:47.812Z,3.63
2023-02-22T03:51:36.619Z,3.74
2023-02-22T03:54:25.122Z,3.70
2023-02-22T03:57:17.697Z,3.71
2023-02-22T04:00:09.992Z,3.66
2023-02-22T04:02:58.764Z,3.55
2023-02-22T04:05:47.435Z,3.61
2023-02-22T04:08:36.039Z,3.64
2023-02-22T04:11:24.622Z,3.66
2023-02-22T04:14:14.153Z,3.61
2023-02-22T04:17:03.994Z,3.49
2023-02-22T04:19:52.456Z,3.46
2023-02-22T04:22:41.224Z,3.31
2023-02-22T04:25:29.833Z,3.27
2023-02-22T04:28:18.435Z,3.12
2023-02-22T04:31:07.039Z,3.16
2023-02-22T04:33:56.904Z,3.11
2023-02-22T04:36:45.551Z,3.19
2023-02-22T04:39:33.974Z,3.29
2023-02-22T04:42:22.489Z,3.21
2023-02-22T04:45:11.473Z,3.33
2023-02-22T04:47:59.952Z,3.34
2023-02-22T04:50:51.197Z,3.26
2023-02-22T04:53:39.697Z,3.19
2023-02-22T04:56:28.497Z,3.28
2023-02-22T04:59:17.006Z,3.26
2023-02-22T05:02:05.944Z,3.44
2023-02-22T05:04:54.512Z,3.24
2023-02-22T05:07:44.412Z,3.31
2023-02-22T05:10:32.898Z,3.32
2023-02-22T05:13:21.429Z,3.31
2023-02-22T05:16:09.885Z,3.39
2023-02-22T05:18:58.403Z,3.33
2023-02-22T05:21:46.811Z,3.22
2023-02-22T05:24:37.116Z,3.02
2023-02-22T05:27:25.611Z,3.07
2023-02-22T05:30:14.584Z,3.04
2023-02-22T05:33:03.521Z,3.09
2023-02-22T05:35:52.047Z,3.04
2023-02-22T05:38:43.372Z,2.64
2023-02-22T05:41:33.408Z,2.96
2023-02-22T05:44:22.085Z,2.99
2023-02-22T05:47:10.605Z,2.85
2023-02-22T05:49:59.157Z,2.86
2023-02-22T05:52:48.598Z,2.85
2023-02-22T05:55:37.084Z,2.84
2023-02-22T05:58:26.923Z,2.80
2023-02-22T06:01:15.470Z,2.82
2023-02-22T06:04:04.255Z,2.71
2023-02-22T06:06:53.039Z,2.72
2023-02-22T06:09:41.575Z,2.70
2023-02-22T06:12:31.201Z,2.79
2023-02-22T06:15:22.188Z,2.78
2023-02-22T06:18:11.014Z,2.79
2023-02-22T06:21:00.093Z,2.77
2023-02-22T06:23:48.643Z,2.74
2023-02-22T06:26:37.128Z,2.69
2023-02-22T06:29:25.660Z,2.77
2023-02-22T06:32:15.676Z,2.72
2023-02-22T06:35:04.548Z,2.61
2023-02-22T06:37:53.219Z,2.70
2023-02-22T06:40:41.645Z,2.79
2023-02-22T06:43:30.176Z,2.88
2023-02-22T06:46:19.481Z,2.93
2023-02-22T06:49:09.311Z,2.83
2023-02-22T06:51:57.776Z,2.89
2023-02-22T06:54:46.264Z,3.01
2023-02-22T06:57:34.660Z,3.07
2023-02-22T07:00:25.191Z,3.22
2023-02-22T07:03:15.060Z,3.37
2023-02-22T07:06:05.675Z,3.33
2023-02-22T07:08:54.737Z,3.31
2023-02-22T07:11:43.670Z,3.29
2023-02-22T07:14:32.241Z,3.33
2023-02-22T07:17:20.699Z,3.28
2023-02-22T07:20:11.510Z,3.46
2023-02-22T07:23:01.580Z,3.60
2023-02-22T07:25:50.085Z,3.68
2023-02-22T07:28:38.544Z,3.78
2023-02-22T07:31:29.558Z,3.78
2023-02-22T07:34:18.287Z,3.70
2023-02-22T07:37:06.774Z,3.67
2023-02-22T07:39:57.227Z,3.65
2023-02-22T07:42:56.424Z,3.72
2023-02-22T07:45:45.573Z,3.83
2023-02-22T07:48:34.563Z,3.83
2023-02-22T07:51:23.043Z,3.86
2023-02-22T07:54:11.534Z,3.95
2023-02-22T07:57:03.385Z,4.03
2023-02-22T07:59:51.983Z,4.28
2023-02-22T08:02:40.418Z,4.32
2023-02-22T08:05:29.766Z,4.52
2023-02-22T08:08:19.922Z,4.57
2023-02-22T08:11:08.611Z,4.72
2023-02-22T08:13:58.464Z,4.89
2023-02-22T08:16:47.015Z,4.94
2023-02-22T08:19:35.511Z,5.03
2023-02-22T08:22:24.001Z,5.10
2023-02-22T08:25:13.008Z,5.26
2023-02-22T08:28:03.157Z,5.39
2023-02-22T08:30:53.375Z,5.55
2023-02-22T08:33:42.452Z,5.64
2023-02-22T08:36:32.926Z,5.99
2023-02-22T08:39:21.433Z,6.14
2023-02-22T08:42:10.349Z,6.30
2023-02-22T08:44:58.879Z,6.54
2023-02-22T08:47:48.911Z,6.68
2023-02-22T08:50:38.124Z,6.98
2023-02-22T08:53:26.659Z,7.17
2023-02-22T08:56:15.203Z,7.34
2023-02-22T08:59:03.700Z,7.32
2023-02-22T09:01:52.419Z,6.92
2023-02-22T09:04:42.329Z,7.51
2023-02-22T09:07:31.142Z,7.70
2023-02-22T09:10:21.487Z,7.50
2023-02-22T09:13:09.993Z,8.17
2023-02-22T09:15:58.530Z,8.31
2023-02-22T09:18:47.770Z,8.29
2023-02-22T09:21:37.671Z,8.46
2023-02-22T09:24:26.401Z,8.62
2023-02-22T09:27:14.948Z,8.76
2023-02-22T09:30:04.267Z,8.25
2023-02-22T09:32:54.402Z,8.97
2023-02-22T09:35:46.340Z,9.09
2023-02-22T09:38:37.111Z,9.16
2023-02-22T09:41:34.589Z,9.24
2023-02-22T09:44:29.699Z,9.31
2023-02-22T09:47:20.691Z,9.40
2023-02-22T09:50:15.629Z,9.49
2023-02-22T09:53:07.127Z,9.64
2023-02-22T09:55:59.804Z,9.72
2023-02-22T09:58:52.244Z,9.95
2023-02-22T10:01:43.433Z,10.07
2023-02-22T10:04:41.286Z,10.23
2023-02-22T10:07:33.167Z,10.33
2023-02-22T10:10:24.304Z,10.45
2023-02-22T10:13:24.434Z,10.62
2023-02-22T10:16:17.550Z,10.84
2023-02-22T10:19:18.707Z,11.06
2023-02-22T10:22:22.412Z,11.26
2023-02-22T10:25:13.732Z,11.30
2023-02-22T10:28:05.079Z,11.43
2023-02-22T10:30:59.038Z,11.62
2023-02-22T10:33:49.652Z,11.84
2023-02-22T10:36:39.213Z,11.98
2023-02-22T10:39:30.037Z,12.08
2023-02-22T10:42:18.581Z,12.15
2023-02-22T10:45:15.474Z,12.21
2023-02-22T10:48:11.647Z,12.22
2023-02-22T10:51:02.417Z,12.27
2023-02-22T10:53:59.490Z,12.36
2023-02-22T10:56:48.799Z,12.33
2023-02-22T10:59:39.191Z,12.23
2023-02-22T11:02:30.813Z,12.25
2023-02-22T11:05:31.161Z,12.19
2023-02-22T11:08:30.671Z,12.14
2023-02-22T11:11:25.074Z,12.26
2023-02-22T11:14:14.479Z,12.32
2023-02-22T11:17:08.214Z,12.36
2023-02-22T11:19:56.698Z,12.43
2023-02-22T11:22:46.582Z,12.54
2023-02-22T11:25:37.401Z,12.58
2023-02-22T11:28:32.824Z,12.66
2023-02-22T11:31:23.475Z,12.77
2023-02-22T11:34:31.521Z,12.89
2023-02-22T11:37:30.330Z,12.97
2023-02-22T11:40:22.747Z,12.86
2023-02-22T11:43:16.630Z,13.15
2023-02-22T11:46:08.274Z,13.24
2023-02-22T11:48:59.104Z,13.38
2023-02-22T11:51:55.031Z,13.45
2023-02-22T11:55:10.545Z,13.51
2023-02-22T11:58:08.743Z,13.61
2023-02-22T12:01:01.775Z,13.75
2023-02-22T12:04:18.451Z,13.97
2023-02-22T12:07:27.292Z,14.08
2023-02-22T12:10:25.078Z,14.24
2023-02-22T12:13:27.185Z,14.29
2023-02-22T12:16:22.637Z,14.27
2023-02-22T12:19:20.194Z,14.21
2023-02-22T12:22:11.524Z,14.17
2023-02-22T12:25:10.340Z,14.12
2023-02-22T12:28:05.750Z,14.22
2023-02-22T12:31:08.131Z,14.26
2023-02-22T12:34:02.051Z,14.36
2023-02-22T12:36:53.081Z,14.23
2023-02-22T12:39:53.537Z,13.64
2023-02-22T12:42:48.833Z,13.97
2023-02-22T12:45:42.076Z,14.38
2023-02-22T12:48:41.785Z,14.71
2023-02-22T12:51:33.901Z,14.99
2023-02-22T12:54:25.685Z,15.19
2023-02-22T12:57:20.197Z,15.35
2023-02-22T13:00:17.120Z,15.37
2023-02-22T13:03:22.294Z,15.36
2023-02-22T13:06:23.592Z,15.29
2023-02-22T13:09:27.778Z,15.35
2023-02-22T13:12:19.537Z,15.38
2023-02-22T13:15:12.768Z,15.38
2023-02-22T13:18:06.173Z,15.37
2023-02-22T13:21:00.844Z,15.35
2023-02-22T13:23:55.580Z,15.34
2023-02-22T13:26:48.121Z,15.31
2023-02-22T13:29:39.662Z,15.34
2023-02-22T13:32:38.419Z,15.30
2023-02-22T13:35:37.650Z,15.18
2023-02-22T13:39:07.373Z,15.07
2023-02-22T13:42:14.143Z,15.01
2023-02-22T13:45:22.124Z,15.05
2023-02-22T13:48:18.237Z,15.03
2023-02-22T13:51:16.901Z,15.05
2023-02-22T13:54:09.030Z,15.17
2023-02-22T13:56:57.978Z,15.07
2023-02-22T13:59:48.125Z,15.10
2023-02-22T14:02:58.565Z,15.08
2023-02-22T14:05:51.813Z,15.01
2023-02-22T14:08:47.033Z,14.93
2023-02-22T14:11:44.300Z,14.99
2023-02-22T14:14:32.768Z,14.86
2023-02-22T14:17:27.283Z,14.88
2023-02-22T14:20:35.282Z,14.85
2023-02-22T14:23:35.542Z,14.85
2023-02-22T14:26:27.509Z,14.79
2023-02-22T14:29:18.006Z,14.87
2023-02-22T14:32:08.280Z,14.82
2023-02-22T14:35:00.754Z,14.64
2023-02-22T14:37:52.167Z,14.60
2023-02-22T14:40:41.291Z,14.56
2023-02-22T14:43:29.973Z,14.47
2023-02-22T14:46:23.055Z,14.44
2023-02-22T14:49:18.879Z,14.35
2023-02-22T14:52:19.258Z,14.35
2023-02-22T14:55:15.515Z,14.30
2023-02-22T14:58:09.802Z,14.14
2023-02-22T15:00:58.367Z,14.23
2023-02-22T15:03:51.466Z,14.12
2023-02-22T15:06:45.012Z,14.15
2023-02-22T15:09:37.440Z,14.16
2023-02-22T15:12:29.983Z,14.16
2023-02-22T15:15:22.062Z,14.18
2023-02-22T15:18:20.042Z,14.06
2023-02-22T15:21:13.469Z,14.00
2023-02-22T15:24:03.618Z,13.99
2023-02-22T15:27:01.588Z,13.77
2023-02-22T15:29:52.363Z,13.97
2023-02-22T15:32:56.992Z,13.91
2023-02-22T15:35:55.298Z,13.96
2023-02-22T15:38:49.115Z,13.50
2023-02-22T15:41:37.625Z,13.87
2023-02-22T15:44:28.500Z,13.71
2023-02-22T15:47:18.891Z,13.77
2023-02-22T15:50:21.136Z,13.69
2023-02-22T15:53:22.675Z,13.70
2023-02-22T15:56:16.744Z,13.59
2023-02-22T15:59:10.273Z,13.58
2023-02-22T16:02:00.671Z,13.52
2023-02-22T16:04:59.283Z,13.51
2023-02-22T16:07:50.008Z,13.44
2023-02-22T16:10:41.214Z,13.44
2023-02-22T16:13:34.373Z,13.38
2023-02-22T16:16:24.351Z,13.33
2023-02-22T16:19:32.778Z,13.31
2023-02-22T16:22:28.046Z,13.24
2023-02-22T16:25:27.370Z,13.11
2023-02-22T16:28:30.704Z,13.02
2023-02-22T16:31:21.854Z,13.02
2023-02-22T16:34:10.905Z,12.95
2023-02-22T16:37:01.359Z,12.89
2023-02-22T16:39:51.718Z,12.90
2023-02-22T16:42:40.237Z,12.81
2023-02-22T16:45:28.861Z,12.76
2023-02-22T16:48:20.012Z,12.68
2023-02-22T16:51:10.788Z,12.70
2023-02-22T16:54:00.642Z,12.79
2023-02-22T16:56:49.122Z,12.67
2023-02-22T16:59:40.078Z,12.55
2023-02-22T17:02:28.540Z,12.60
2023-02-22T17:05:17.755Z,12.57
2023-02-22T17:08:06.977Z,12.56
2023-02-22T17:10:57.525Z,12.50
2023-02-22T17:13:51.470Z,12.40
2023-02-22T17:16:39.923Z,12.37
2023-02-22T17:19:28.783Z,12.46
2023-02-22T17:22:18.709Z,12.33
2023-02-22T17:25:20.346Z,12.29
2023-02-22T17:28:10.677Z,12.30
2023-02-22T17:31:01.620Z,12.27
2023-02-22T17:33:51.337Z,12.29
2023-02-22T17:36:40.167Z,12.18
2023-02-22T17:39:28.704Z,12.08
2023-02-22T17:42:17.198Z,11.94
2023-02-22T17:45:08.983Z,11.95
2023-02-22T17:47:59.074Z,11.94
2023-02-22T17:50:49.313Z,11.89
2023-02-22T17:53:38.403Z,11.90
2023-02-22T17:56:26.901Z,11.83
2023-02-22T17:59:15.650Z,11.90
2023-02-22T18:02:05.660Z,11.84
2023-02-22T18:04:54.280Z,11.79
2023-02-22T18:07:42.782Z,11.65
2023-02-22T18:10:31.432Z,11.67
2023-02-22T18:13:19.885Z,11.55
2023-02-22T18:16:09.802Z,11.51
2023-02-22T18:19:01.541Z,11.49
2023-02-22T18:21:50.157Z,11.50
2023-02-22T18:24:38.628Z,11.49
2023-02-22T18:27:30.128Z,11.46
2023-02-22T18:30:18.692Z,11.42
2023-02-22T18:33:11.102Z,11.36
2023-02-22T18:36:00.910Z,11.31
2023-02-22T18:38:50.722Z,11.27
2023-02-22T18:41:39.482Z,11.24
2023-02-22T18:44:28.155Z,11.20
2023-02-22T18:47:16.726Z,11.20
2023-02-22T18:50:05.645Z,11.20
2023-02-22T18:52:55.661Z,11.24
2023-02-22T18:55:44.158Z,11.20
2023-02-22T18:58:33.339Z,10.93
2023-02-22T19:01:22.042Z,10.93
2023-02-22T19:04:12.651Z,10.93
2023-02-22T19:07:01.175Z,11.12
2023-02-22T19:09:51.658Z,11.12
2023-02-22T19:12:40.208Z,11.11
2023-02-22T19:15:28.676Z,11.20
2023-02-22T19:18:17.179Z,11.14
2023-02-22T19:21:08.926Z,11.13
2023-02-22T19:23:57.634Z,11.10
2023-02-22T19:26:50.678Z,11.08
2023-02-22T19:29:39.926Z,11.03
2023-02-22T19:32:28.535Z,10.97
2023-02-22T19:35:26.145Z,10.93
2023-02-22T19:38:15.429Z,11.00
2023-02-22T19:41:10.238Z,10.92
2023-02-22T19:44:01.867Z,11.00
2023-02-22T19:46:50.342Z,10.92
2023-02-22T19:49:40.964Z,10.86
2023-02-22T19:52:29.882Z,10.82
2023-02-22T19:55:18.346Z,10.53
2023-02-22T19:58:06.866Z,10.70
2023-02-22T20:00:56.778Z,10.67
2023-02-22T20:03:45.779Z,10.63
2023-02-22T20:06:40.114Z,10.71
2023-02-22T20:09:36.224Z,10.64
2023-02-22T20:12:24.719Z,10.53
2023-02-22T20:15:13.591Z,10.59
2023-02-22T20:18:03.417Z,10.53
2023-02-22T20:20:51.925Z,10.66
2023-02-22T20:23:44.278Z,10.64
2023-02-22T20:26:37.234Z,10.65
2023-02-22T20:29:29.624Z,10.62
2023-02-22T20:32:18.552Z,10.77
2023-02-22T20:35:09.433Z,10.77
2023-02-22T20:37:57.968Z,10.76
2023-02-22T20:40:46.795Z,10.74
2023-02-22T20:43:36.441Z,10.71
2023-02-22T20:46:26.639Z,10.72
2023-02-22T20:49:17.074Z,10.74
2023-02-22T20:52:06.960Z,10.71
2023-02-22T20:54:56.318Z,10.70
2023-02-22T20:57:44.773Z,10.79
2023-02-22T21:00:33.277Z,10.89
2023-02-22T21:03:21.974Z,11.00
2023-02-22T21:06:11.791Z,11.14
2023-02-22T21:09:02.768Z,11.25
2023-02-22T21:11:51.393Z,11.35
2023-02-22T21:14:40.443Z,11.40
2023-02-22T21:17:30.738Z,11.52
2023-02-22T21:20:21.924Z,11.54
2023-02-22T21:23:11.129Z,11.62
2023-02-22T21:26:01.004Z,11.50
2023-02-22T21:28:51.728Z,11.55
2023-02-22T21:31:40.531Z,11.46
2023-02-22T21:34:29.726Z,11.50
2023-02-22T21:37:18.249Z,11.41
2023-02-22T21:40:11.882Z,11.31
2023-02-22T21:43:01.959Z,11.21
2023-02-22T21:45:50.687Z,11.13
2023-02-22T21:48:39.810Z,11.13
2023-02-22T21:51:31.864Z,11.06
2023-02-22T21:54:20.683Z,11.07
2023-02-22T21:57:09.732Z,11.02
2023-02-22T21:59:59.672Z,10.97
2023-02-22T22:02:51.809Z,10.99
2023-02-22T22:05:45.156Z,10.77
2023-02-22T22:08:36.045Z,10.75
2023-02-22T22:11:25.212Z,10.84
2023-02-22T22:14:14.541Z,10.86
2023-02-22T22:17:05.876Z,10.91
2023-02-22T22:19:54.438Z,10.90
2023-02-22T22:22:45.324Z,10.82
2023-02-22T22:25:38.076Z,10.81
2023-02-22T22:28:26.899Z,10.77
2023-02-22T22:31:17.316Z,10.82
2023-02-22T22:34:07.669Z,10.77
2023-02-22T22:36:58.035Z,10.72
2023-02-22T22:39:46.535Z,10.72
2023-02-22T22:42:34.977Z,10.68
2023-02-22T22:45:23.472Z,10.70
2023-02-22T22:48:14.912Z,10.69
2023-02-22T22:51:09.346Z,10.68
2023-02-22T22:54:00.301Z,10.46
2023-02-22T22:56:49.019Z,10.64
2023-02-22T22:59:37.578Z,10.62
2023-02-22T23:02:26.127Z,10.60
2023-02-22T23:05:17.285Z,10.64
2023-02-22T23:08:10.628Z,10.61
2023-02-22T23:10:59.201Z,10.65
2023-02-22T23:13:47.677Z,10.64
2023-02-22T23:16:36.347Z,10.64
2023-02-22T23:19:24.913Z,10.62
2023-02-22T23:22:14.344Z,10.59
2023-02-22T23:25:04.717Z,10.56
2023-02-22T23:27:54.706Z,10.54
2023-02-22T23:30:43.227Z,10.48
2023-02-22T23:33:32.047Z,10.46
2023-02-22T23:36:21.049Z,10.46
2023-02-22T23:39:09.529Z,10.39
2023-02-22T23:42:00.010Z,10.41
2023-02-22T23:44:49.145Z,10.37
2023-02-22T23:47:38.462Z,10.31
2023-02-22T23:50:28.957Z,10.30
2023-02-22T23:53:17.476Z,10.31
2023-02-22T23:56:10.027Z,10.22
2023-02-22T23:58:59.966Z,10.15
